Time;durP1;ratioP1;P1;durP2;ratioP2;P2;SDS_P1;SDS_P2;PMS_P1;PMS_P2;Temp;Humidity;BMP_temperature;BMP_pressure;BME280_temperature;BME280_humidity;BME280_pressure;Samples;Min_cycle;Max_cycle;Signal;HPM_P1;HPM_P2
2022/05/03 00:00:05;;;;;;;10.17;9.03;;;;;;;6.47;100.00;100780.09;4949136;29;20211;-71
2022/05/03 00:02:45;;;;;;;15.57;8.27;;;;;;;6.50;100.00;100782.69;4943789;29;20211;-71
2022/05/03 00:05:16;;;;;;;13.13;9.47;;;;;;;6.40;100.00;100780.16;4943026;29;20205;-71
2022/05/03 00:07:47;;;;;;;11.50;8.63;;;;;;;6.42;100.00;100781.00;4943791;29;20234;-71
2022/05/03 00:10:16;;;;;;;9.27;8.10;;;;;;;6.40;100.00;100776.69;4944884;28;20564;-71
2022/05/03 00:12:48;;;;;;;10.10;9.03;;;;;;;6.41;100.00;100776.69;4944975;28;20210;-71
2022/05/03 00:15:18;;;;;;;9.87;8.17;;;;;;;6.30;100.00;100777.59;4945328;29;20203;-71
2022/05/03 00:17:46;;;;;;;10.20;8.27;;;;;;;6.31;100.00;100775.00;4945045;28;20238;-72
2022/05/03 00:20:12;;;;;;;11.10;8.93;;;;;;;6.27;100.00;100772.47;4952618;28;20203;-72
2022/05/03 00:22:39;;;;;;;11.13;8.53;;;;;;;6.24;100.00;100768.16;4944671;29;20202;-71
2022/05/03 00:25:06;;;;;;;9.80;8.77;;;;;;;6.19;100.00;100767.31;4947277;28;20207;-71
2022/05/03 00:27:34;;;;;;;13.27;9.17;;;;;;;6.15;100.00;100756.13;4950532;28;20219;-72
2022/05/03 00:30:04;;;;;;;9.37;8.40;;;;;;;6.10;100.00;100768.22;4943079;28;20548;-72
2022/05/03 00:32:31;;;;;;;11.73;9.03;;;;;;;6.05;100.00;100759.63;4949781;28;20205;-72
2022/05/03 00:35:00;;;;;;;11.03;9.30;;;;;;;5.98;100.00;100758.81;4939257;29;20258;-71
2022/05/03 00:37:27;;;;;;;12.00;9.07;;;;;;;5.98;100.00;100761.41;4942645;28;20674;-72
2022/05/03 00:39:53;;;;;;;9.73;8.37;;;;;;;5.92;100.00;100756.22;4947765;29;20297;-71
2022/05/03 00:42:23;;;;;;;10.63;8.90;;;;;;;5.95;100.00;100760.53;4945542;29;20198;-71
2022/05/03 00:45:02;;;;;;;11.57;9.70;;;;;;;5.88;100.00;100755.38;4943424;29;20199;-71
2022/05/03 00:47:51;;;;;;;10.57;9.03;;;;;;;5.80;100.00;100759.72;4937395;28;20241;-71
2022/05/03 00:50:33;;;;;;;10.70;8.47;;;;;;;5.78;100.00;100755.41;4944842;28;20273;-71
2022/05/03 00:53:06;;;;;;;15.70;9.57;;;;;;;5.78;100.00;100765.78;4942411;29;20630;-72
2022/05/03 00:56:14;;;;;;;10.63;9.53;;;;;;;5.78;100.00;100760.59;4940023;28;20216;-71
2022/05/03 00:59:03;;;;;;;13.80;9.67;;;;;;;5.69;100.00;100764.09;4907225;29;20238;-71
2022/05/03 01:01:41;;;;;;;11.10;9.97;;;;;;;5.68;100.00;100765.81;4909560;29;20230;-72
2022/05/03 01:04:17;;;;;;;12.33;9.93;;;;;;;5.63;100.00;100753.78;4940020;28;20724;-71
2022/05/03 01:06:53;;;;;;;10.77;9.67;;;;;;;5.57;100.00;100758.94;4948333;28;20218;-71
2022/05/03 01:09:25;;;;;;;13.90;9.70;;;;;;;5.66;100.00;100753.75;4946914;28;20218;-71
2022/05/03 01:12:09;;;;;;;13.33;10.50;;;;;;;5.60;100.00;100754.63;4939930;29;20225;-71
2022/05/03 01:14:49;;;;;;;11.67;10.13;;;;;;;5.62;100.00;100757.22;4941312;29;20211;-71
2022/05/03 01:17:21;;;;;;;13.70;9.63;;;;;;;5.52;100.00;100763.28;4941633;29;20209;-71
2022/05/03 01:20:02;;;;;;;11.23;9.63;;;;;;;5.53;100.00;100762.44;4951596;28;20648;-71
2022/05/03 01:23:02;;;;;;;13.60;10.43;;;;;;;5.44;100.00;100758.13;4949416;28;20206;-72
2022/05/03 01:25:51;;;;;;;11.33;9.17;;;;;;;5.48;100.00;100760.69;4949175;28;20202;-72
2022/05/03 01:28:29;;;;;;;11.23;9.53;;;;;;;5.49;100.00;100753.81;4938432;29;20219;-71
2022/05/03 01:30:58;;;;;;;13.17;10.30;;;;;;;5.38;100.00;100752.97;4946063;28;20582;-71
2022/05/03 01:33:31;;;;;;;10.90;9.70;;;;;;;5.34;100.00;100753.84;4950175;28;20215;-71
2022/05/03 01:35:59;;;;;;;13.67;10.73;;;;;;;5.34;100.00;100748.69;4948499;28;20206;-71
2022/05/03 01:38:35;;;;;;;11.20;9.43;;;;;;;5.32;100.00;100754.69;4946789;28;20227;-71
2022/05/03 01:41:13;;;;;;;11.60;9.37;;;;;;;5.46;100.00;100759.84;4948507;29;20282;-71
2022/05/03 01:44:06;;;;;;;11.93;9.50;;;;;;;5.49;100.00;100749.50;4948778;28;20254;-71
2022/05/03 01:46:36;;;;;;;11.37;10.17;;;;;;;5.46;100.00;100754.66;4946883;29;20549;-72
2022/05/03 01:52:23;;;;;;;11.30;9.67;;;;;;;5.20;100.00;100752.16;4946422;28;20262;-72
2022/05/03 01:55:03;;;;;;;12.43;9.63;;;;;;;5.08;100.00;100755.63;4941448;29;20281;-72
2022/05/03 01:57:41;;;;;;;10.37;8.47;;;;;;;5.10;100.00;100751.31;4951517;28;20226;-71
2022/05/03 02:00:09;;;;;;;14.53;9.87;;;;;;;5.25;100.00;100752.16;4949461;28;20194;-70
2022/05/03 02:02:54;;;;;;;11.73;9.67;;;;;;;5.14;100.00;100749.59;4938752;28;20460;-71
2022/05/03 02:05:44;;;;;;;15.27;9.47;;;;;;;5.13;100.00;100743.53;4936016;29;20444;-71
2022/05/03 02:08:14;;;;;;;13.80;9.60;;;;;;;5.18;100.00;100745.28;4947018;29;20218;-72
2022/05/03 02:10:57;;;;;;;12.10;9.97;;;;;;;5.17;100.00;100747.00;4936279;29;20555;-71
2022/05/03 02:16:45;;;;;;;13.63;9.40;;;;;;;5.16;100.00;100745.28;4934454;29;20199;-71
2022/05/03 02:19:28;;;;;;;13.73;9.63;;;;;;;5.20;100.00;100743.53;4949200;28;20223;-72
2022/05/03 02:22:12;;;;;;;13.20;10.03;;;;;;;5.17;100.00;100746.13;4942910;29;20217;-71
2022/05/03 02:24:52;;;;;;;13.63;9.70;;;;;;;5.24;100.00;100743.53;4959390;28;20678;-69
2022/05/03 02:27:19;;;;;;;13.37;10.83;;;;;;;5.25;100.00;100747.81;4939289;29;20205;-71
2022/05/03 02:29:47;;;;;;;14.73;11.40;;;;;;;5.27;100.00;100746.09;4941915;29;20206;-72
2022/05/03 02:32:18;;;;;;;10.97;9.67;;;;;;;5.33;100.00;100745.25;4942248;29;20667;-70
2022/05/03 02:34:50;;;;;;;11.03;9.73;;;;;;;5.37;100.00;100751.25;4942106;29;20202;-72
2022/05/03 02:37:18;;;;;;;15.10;10.90;;;;;;;5.37;100.00;100746.94;4944394;28;20203;-72
2022/05/03 02:39:51;;;;;;;15.27;10.33;;;;;;;5.43;100.00;100743.47;4939271;29;20234;-72
2022/05/03 02:42:19;;;;;;;13.53;10.80;;;;;;;5.44;100.00;100750.38;4942776;28;20207;-71
2022/05/03 02:44:47;;;;;;;13.10;10.80;;;;;;;5.43;100.00;100749.50;4939738;29;20215;-71
2022/05/03 02:47:24;;;;;;;11.93;10.20;;;;;;;5.38;100.00;100746.09;4944047;29;20207;-72
2022/05/03 02:50:06;;;;;;;12.53;10.60;;;;;;;5.47;100.00;100737.41;4937893;29;20214;-71
2022/05/03 02:52:41;;;;;;;13.03;10.07;;;;;;;5.44;100.00;100734.88;4949984;28;20211;-71
2022/05/03 02:55:18;;;;;;;11.77;10.57;;;;;;;5.45;100.00;100726.22;4949060;28;20658;-72
2022/05/03 02:57:53;;;;;;;13.07;9.93;;;;;;;5.37;100.00;100728.84;4942836;29;20230;-71
2022/05/03 03:03:25;;;;;;;14.10;11.00;;;;;;;5.37;100.00;100723.66;4946643;29;20205;-72
2022/05/03 03:05:57;;;;;;;17.43;10.43;;;;;;;5.36;100.00;100731.44;4941122;28;20563;-71
2022/05/03 03:08:24;;;;;;;14.37;10.70;;;;;;;5.35;100.00;100735.75;4943382;29;20245;-71
2022/05/03 03:10:53;;;;;;;15.00;11.27;;;;;;;5.35;100.00;100730.56;4942121;29;20203;-72
2022/05/03 03:13:32;;;;;;;15.30;10.97;;;;;;;5.30;100.00;100730.56;4949964;28;20287;-71
2022/05/03 03:15:59;;;;;;;12.33;11.03;;;;;;;5.29;100.00;100726.28;4942761;29;20555;-69
2022/05/03 03:18:27;;;;;;;14.53;11.20;;;;;;;5.27;100.00;100721.97;4945842;28;20234;-71
2022/05/03 03:20:58;;;;;;;16.00;11.73;;;;;;;5.29;100.00;100728.00;4944834;29;20217;-71
2022/05/03 03:23:28;;;;;;;14.30;10.80;;;;;;;5.26;100.00;100726.28;4952743;29;20198;-71
2022/05/03 03:25:55;;;;;;;12.97;10.50;;;;;;;5.23;100.00;100728.88;4938715;29;20207;-72
2022/05/03 03:28:23;;;;;;;13.47;10.70;;;;;;;5.28;100.00;100734.91;4941349;29;20222;-71
2022/05/03 03:30:52;;;;;;;12.83;10.73;;;;;;;5.28;100.00;100726.28;4951041;28;20214;-71
2022/05/03 03:33:19;;;;;;;11.57;10.33;;;;;;;5.32;100.00;100720.25;4949616;29;20199;-72
2022/05/03 03:35:47;;;;;;;15.77;10.33;;;;;;;5.20;100.00;100728.03;4948532;29;20220;-71
2022/05/03 03:38:15;;;;;;;12.67;10.63;;;;;;;5.18;100.00;100722.00;4946729;29;20646;-71
2022/05/03 03:40:45;;;;;;;12.63;10.63;;;;;;;5.16;100.00;100723.75;4943492;29;20195;-71
2022/05/03 03:43:12;;;;;;;13.13;10.87;;;;;;;5.10;100.00;100722.00;4946413;29;20218;-71
2022/05/03 03:45:38;;;;;;;13.20;11.10;;;;;;;5.07;100.00;100715.13;4939662;28;20215;-71
2022/05/03 03:48:06;;;;;;;14.13;10.73;;;;;;;5.27;100.00;100715.06;4939735;29;20226;-71
2022/05/03 03:50:34;;;;;;;16.20;11.43;;;;;;;5.25;100.00;100711.63;4946266;28;20211;-71
2022/05/03 03:53:01;;;;;;;11.70;10.43;;;;;;;5.20;100.00;100718.53;4938634;29;20215;-71
2022/05/03 03:55:29;;;;;;;15.70;11.17;;;;;;;5.26;100.00;100715.94;4944834;28;20218;-71
2022/05/03 03:57:57;;;;;;;13.20;10.10;;;;;;;5.23;100.00;100715.09;4951461;29;20227;-71
2022/05/03 04:00:23;;;;;;;14.03;11.17;;;;;;;5.34;100.00;100710.75;4950088;29;20213;-71
2022/05/03 04:02:50;;;;;;;16.50;10.80;;;;;;;5.23;100.00;100708.19;4944602;28;20203;-71
2022/05/03 04:05:20;;;;;;;15.27;11.07;;;;;;;5.29;100.00;100704.72;4950727;29;20210;-71
2022/05/03 04:07:47;;;;;;;17.50;10.93;;;;;;;5.31;100.00;100710.75;4941947;28;20230;-71
2022/05/03 04:10:14;;;;;;;18.73;11.23;;;;;;;5.41;100.00;100709.84;4948659;28;20575;-71
2022/05/03 04:12:42;;;;;;;17.20;11.27;;;;;;;5.43;100.00;100715.03;4938413;29;20219;-71
2022/05/03 04:15:09;;;;;;;14.20;10.70;;;;;;;5.57;100.00;100709.81;4950806;29;20205;-71
2022/05/03 04:17:36;;;;;;;17.10;11.70;;;;;;;5.69;100.00;100712.34;4946059;28;20234;-71
2022/05/03 04:20:03;;;;;;;14.87;11.27;;;;;;;5.62;100.00;100713.22;4946337;29;20218;-71
2022/05/03 04:22:32;;;;;;;15.53;11.50;;;;;;;5.71;100.00;100722.69;4942233;28;20199;-70
2022/05/03 04:25:00;;;;;;;14.73;12.00;;;;;;;5.56;100.00;100733.94;4945448;28;20211;-72
2022/05/03 04:27:27;;;;;;;14.03;11.40;;;;;;;5.56;100.00;100744.28;4954308;28;20239;-72
2022/05/03 04:29:56;;;;;;;13.30;11.03;;;;;;;5.62;100.00;100750.31;4949640;28;20277;-71
2022/05/03 04:32:22;;;;;;;14.83;12.40;;;;;;;5.59;100.00;100752.88;4946828;29;20211;-71
2022/05/03 04:34:50;;;;;;;14.20;11.90;;;;;;;5.75;100.00;100756.31;4947127;28;20219;-71
2022/05/03 04:37:16;;;;;;;16.80;11.37;;;;;;;5.95;100.00;100758.78;4949394;29;20207;-71
2022/05/03 04:39:43;;;;;;;15.53;11.07;;;;;;;6.25;100.00;100756.94;4938834;28;20228;-71
2022/05/03 04:42:10;;;;;;;16.47;13.13;;;;;;;6.20;100.00;100759.53;4945734;29;20202;-71
2022/05/03 04:44:37;;;;;;;15.17;12.80;;;;;;;6.19;100.00;100770.78;4940718;28;20197;-71
2022/05/03 04:47:05;;;;;;;14.87;13.03;;;;;;;6.23;100.00;100774.22;4937673;29;20195;-72
2022/05/03 04:49:31;;;;;;;15.13;12.37;;;;;;;6.37;100.00;100772.41;4945667;29;20210;-71
2022/05/03 04:51:58;;;;;;;15.10;12.27;;;;;;;6.60;100.00;100771.38;4946145;28;20824;-72
2022/05/03 04:54:25;;;;;;;16.73;11.77;;;;;;;6.63;100.00;100782.59;4949151;28;20225;-71
2022/05/03 04:56:57;;;;;;;16.27;12.50;;;;;;;6.72;100.00;100781.66;4940059;28;20203;-72
2022/05/03 04:59:24;;;;;;;13.80;11.67;;;;;;;6.76;100.00;100793.69;4943987;28;20601;-71
2022/05/03 05:01:50;;;;;;;15.00;12.17;;;;;;;6.81;100.00;100797.13;4939778;28;20812;-71
2022/05/03 05:04:18;;;;;;;15.87;12.47;;;;;;;7.03;100.00;100786.56;4942315;29;20202;-70
2022/05/03 05:06:44;;;;;;;15.27;12.07;;;;;;;7.16;100.00;100787.34;4943865;29;20214;-70
2022/05/03 05:09:11;;;;;;;13.97;12.37;;;;;;;7.41;100.00;100784.50;4936160;29;20620;-71
2022/05/03 05:11:39;;;;;;;14.90;13.30;;;;;;;7.49;100.00;100777.47;4948375;28;20219;-71
2022/05/03 05:14:05;;;;;;;14.90;13.00;;;;;;;7.51;100.00;100783.50;4943943;28;20207;-71
2022/05/03 05:16:32;;;;;;;15.23;13.40;;;;;;;7.52;100.00;100799.06;4944058;29;20207;-71
2022/05/03 05:19:00;;;;;;;14.90;12.77;;;;;;;7.60;100.00;100799.00;4945784;28;20222;-71
2022/05/03 05:21:28;;;;;;;16.03;13.53;;;;;;;7.75;100.00;100787.56;4940828;28;20318;-71
2022/05/03 05:23:54;;;;;;;16.47;12.93;;;;;;;7.83;100.00;100777.94;4940812;29;20207;-72
2022/05/03 05:26:22;;;;;;;15.70;12.53;;;;;;;8.02;100.00;100776.00;4943081;28;20203;-70
2022/05/03 05:28:48;;;;;;;15.67;12.50;;;;;;;8.15;100.00;100780.13;4937738;29;20227;-71
2022/05/03 05:31:15;;;;;;;16.37;13.07;;;;;;;8.26;100.00;100776.53;4944441;29;20207;-71
2022/05/03 05:33:41;;;;;;;16.37;13.17;;;;;;;8.35;100.00;100781.56;4939041;29;20733;-72
2022/05/03 05:36:07;;;;;;;15.53;13.43;;;;;;;8.49;100.00;100777.06;4945002;28;20210;-72
2022/05/03 05:38:35;;;;;;;16.37;13.97;;;;;;;8.57;100.00;100789.09;4938243;29;20227;-71
2022/05/03 05:41:12;;;;;;;16.97;13.80;;;;;;;8.69;100.00;100794.97;4941607;28;20196;-72
2022/05/03 05:43:38;;;;;;;15.07;12.93;;;;;;;8.76;100.00;100789.66;4939521;28;20213;-71
2022/05/03 05:46:05;;;;;;;14.43;12.73;;;;;;;8.89;100.00;100799.84;4941602;28;20203;-72
2022/05/03 05:48:31;;;;;;;15.57;11.93;;;;;;;9.03;100.00;100807.41;4936075;29;20238;-71
2022/05/03 05:50:58;;;;;;;16.07;12.27;;;;;;;9.11;100.00;100809.88;4945283;29;20204;-72
2022/05/03 05:53:32;;;;;;;15.47;12.37;;;;;;;9.23;100.00;100807.09;4937445;29;20222;-72
2022/05/03 05:56:00;;;;;;;19.20;11.90;;;;;;;9.40;99.02;100805.91;4943008;29;20199;-71
2022/05/03 05:58:26;;;;;;;13.50;11.70;;;;;;;9.52;99.22;100810.88;4938574;28;20251;-71
2022/05/03 06:00:53;;;;;;;15.40;12.23;;;;;;;9.72;98.07;100818.31;4941629;29;20529;-70
2022/05/03 06:03:22;;;;;;;14.70;12.37;;;;;;;9.88;97.04;100811.03;4944109;28;20203;-72
2022/05/03 06:05:49;;;;;;;13.53;11.57;;;;;;;10.04;96.51;100815.06;4942770;28;20667;-72
2022/05/03 06:08:15;;;;;;;13.27;11.10;;;;;;;10.21;95.07;100819.06;4948189;28;20230;-71
2022/05/03 06:10:42;;;;;;;11.30;9.67;;;;;;;10.37;92.46;100823.06;4938799;28;20220;-71
2022/05/03 06:13:10;;;;;;;13.13;10.43;;;;;;;10.51;90.98;100822.75;4937023;29;20225;-72
2022/05/03 06:15:37;;;;;;;12.33;10.30;;;;;;;10.67;89.43;100830.25;4940499;29;20204;-71
2022/05/03 06:18:04;;;;;;;11.90;10.40;;;;;;;10.85;87.15;100841.97;4939329;28;20237;-70
2022/05/03 06:20:30;;;;;;;11.53;10.30;;;;;;;10.98;88.18;100831.22;4941109;29;20328;-72
2022/05/03 06:22:57;;;;;;;11.10;9.60;;;;;;;11.13;88.39;100832.59;4941357;28;20206;-72
2022/05/03 06:25:23;;;;;;;10.27;9.27;;;;;;;11.24;86.94;100831.44;4939178;29;20218;-71
2022/05/03 06:27:50;;;;;;;11.20;10.00;;;;;;;11.42;85.44;100840.59;4940100;29;20278;-72
2022/05/03 06:30:18;;;;;;;10.83;9.70;;;;;;;11.62;84.72;100838.28;4937970;29;20257;-71
2022/05/03 06:32:45;;;;;;;11.43;9.20;;;;;;;11.71;82.98;100842.41;4942500;29;20715;-71
2022/05/03 06:35:12;;;;;;;9.53;8.53;;;;;;;11.82;82.86;100850.81;4944452;28;20237;-71
2022/05/03 06:37:41;;;;;;;12.80;9.60;;;;;;;11.96;81.98;100847.84;4930811;29;20256;-72
2022/05/03 06:40:08;;;;;;;12.43;8.57;;;;;;;12.17;81.31;100849.00;4941933;28;20230;-70
2022/05/03 06:42:36;;;;;;;8.97;7.93;;;;;;;12.32;80.23;100853.75;4938575;29;20211;-72
2022/05/03 06:45:03;;;;;;;11.13;8.77;;;;;;;12.45;80.35;100845.53;4939737;29;20203;-72
2022/05/03 06:47:31;;;;;;;9.10;8.03;;;;;;;12.54;80.10;100854.84;4939145;28;20251;-72
2022/05/03 06:49:57;;;;;;;8.20;7.30;;;;;;;12.66;80.30;100850.13;4951348;28;20202;-72
2022/05/03 06:52:25;;;;;;;9.23;7.47;;;;;;;12.76;78.25;100863.75;4942676;28;20235;-72
2022/05/03 06:54:52;;;;;;;8.67;7.83;;;;;;;12.83;76.31;100862.66;4941066;29;20305;-71
2022/05/03 06:57:18;;;;;;;8.60;7.70;;;;;;;12.89;74.08;100872.06;4947806;28;20217;-71
2022/05/03 06:59:45;;;;;;;10.57;7.73;;;;;;;13.06;74.19;100867.16;4945407;28;20215;-70
2022/05/03 07:02:12;;;;;;;8.43;7.63;;;;;;;13.19;73.83;100865.00;4939275;29;20200;-72
2022/05/03 07:04:43;;;;;;;11.97;7.63;;;;;;;13.28;72.13;100876.94;4943511;29;20202;-72
2022/05/03 07:07:10;;;;;;;12.90;7.53;;;;;;;13.31;71.14;100884.69;4936836;29;20218;-72
2022/05/03 07:09:36;;;;;;;8.70;7.07;;;;;;;13.43;72.11;100878.19;4938434;29;20214;-72
2022/05/03 07:12:03;;;;;;;9.50;7.37;;;;;;;13.62;75.02;100874.03;4938662;29;20312;-72
2022/05/03 07:14:29;;;;;;;7.47;6.63;;;;;;;13.68;70.51;100882.59;4943283;29;20549;-72
2022/05/03 07:16:56;;;;;;;7.93;6.77;;;;;;;13.83;69.96;100884.69;4936141;29;20207;-72
2022/05/03 07:24:52;;;;;;;12.77;6.17;;;;;;;14.07;66.22;100888.19;4938958;29;20290;-70
2022/05/03 07:27:18;;;;;;;8.97;6.40;;;;;;;14.09;66.58;100888.13;4937243;29;20204;-72
2022/05/03 07:29:45;;;;;;;6.93;6.23;;;;;;;14.14;68.46;100887.06;4940178;29;20198;-72
2022/05/03 07:32:12;;;;;;;7.67;5.90;;;;;;;14.28;65.03;100878.69;4942250;29;20207;-72
2022/05/03 07:34:38;;;;;;;8.47;6.13;;;;;;;14.37;66.49;100880.94;4943737;29;20213;-71
2022/05/03 07:37:05;;;;;;;7.53;5.77;;;;;;;14.50;65.93;100883.94;4941928;29;20266;-72
2022/05/03 07:39:33;;;;;;;8.37;5.60;;;;;;;14.67;64.84;100882.47;4934317;29;20231;-72
2022/05/03 07:42:00;;;;;;;6.73;5.47;;;;;;;14.79;59.24;100897.72;4939556;29;20285;-72
2022/05/03 07:44:26;;;;;;;6.67;5.80;;;;;;;14.80;58.53;100898.59;4937602;29;20198;-71
2022/05/03 07:46:52;;;;;;;7.67;5.33;;;;;;;14.86;56.70;100896.59;4949444;29;20208;-72
2022/05/03 07:49:19;;;;;;;6.70;5.90;;;;;;;14.95;59.23;100896.22;4940080;28;20233;-72
2022/05/03 07:51:45;;;;;;;9.00;5.03;;;;;;;14.94;59.40;100891.88;4950047;29;20626;-71
2022/05/03 07:54:11;;;;;;;5.57;5.07;;;;;;;14.96;59.53;100892.66;4943546;29;20220;-72
2022/05/03 07:56:39;;;;;;;8.00;5.50;;;;;;;15.08;59.06;100896.59;4942199;29;20203;-72
2022/05/03 07:59:09;;;;;;;10.10;5.77;;;;;;;15.08;61.73;100895.72;4943154;29;20224;-72
2022/05/03 08:01:37;;;;;;;8.47;5.70;;;;;;;15.24;60.36;100896.81;4945742;29;20550;-72
2022/05/03 08:04:03;;;;;;;6.60;5.40;;;;;;;15.26;60.88;100896.75;4944528;29;20209;-70
2022/05/03 08:06:30;;;;;;;8.13;5.57;;;;;;;15.42;62.34;100896.97;4941453;29;20219;-72
2022/05/03 08:08:56;;;;;;;6.47;5.73;;;;;;;15.39;60.06;100894.44;4935231;29;20270;-72
2022/05/03 08:11:23;;;;;;;6.83;5.53;;;;;;;15.38;61.85;100898.88;4942222;29;21001;-71
2022/05/03 08:13:53;;;;;;;7.80;5.70;;;;;;;15.53;60.96;100900.84;4943717;29;20213;-72
2022/05/03 08:16:21;;;;;;;5.90;5.30;;;;;;;15.46;59.91;100903.78;4942437;28;20266;-72
2022/05/03 08:18:48;;;;;;;7.33;5.40;;;;;;;15.60;56.87;100908.47;4944315;29;20697;-71
2022/05/03 08:21:14;;;;;;;7.53;5.10;;;;;;;15.77;58.03;100910.41;4937469;28;20232;-71
2022/05/03 08:23:40;;;;;;;7.50;5.20;;;;;;;15.85;56.00;100918.81;4940347;29;20207;-72
2022/05/03 08:26:07;;;;;;;8.73;5.23;;;;;;;15.97;56.49;100907.78;4942487;29;20199;-71
2022/05/03 08:28:33;;;;;;;8.30;4.63;;;;;;;16.08;55.67;100921.28;4949364;28;20237;-71
2022/05/03 08:31:02;;;;;;;5.57;4.90;;;;;;;16.20;58.21;100908.50;4948322;28;20220;-71
2022/05/03 08:33:29;;;;;;;7.67;5.10;;;;;;;16.40;55.96;100918.97;4940935;28;20219;-71
2022/05/03 08:35:55;;;;;;;8.20;4.90;;;;;;;16.49;54.74;100925.59;4941101;29;20254;-72
2022/05/03 08:43:50;;;;;;;5.80;4.40;;;;;;;16.65;52.97;100926.59;4934706;29;20247;-71
2022/05/03 08:46:20;;;;;;;7.90;4.67;;;;;;;16.65;53.08;100926.59;4940075;29;20211;-71
2022/05/03 08:48:50;;;;;;;6.20;4.77;;;;;;;16.67;50.93;100931.78;4940722;28;20701;-71
2022/05/03 08:51:21;;;;;;;8.10;4.47;;;;;;;16.75;51.70;100924.38;4939475;29;20238;-73
2022/05/03 08:53:47;;;;;;;8.00;4.70;;;;;;;16.83;50.81;100932.81;4943234;28;20226;-70
2022/05/03 08:56:18;;;;;;;10.90;5.00;;;;;;;16.91;51.96;100921.91;4943276;29;20203;-71
2022/05/03 08:58:44;;;;;;;4.63;4.23;;;;;;;16.88;50.58;100926.47;4932753;29;20223;-70
2022/05/03 09:01:11;;;;;;;5.10;4.10;;;;;;;16.91;50.63;100928.97;4937186;28;20211;-73
2022/05/03 09:03:39;;;;;;;8.00;4.13;;;;;;;16.88;51.07;100919.41;4934138;29;20199;-73
2022/05/03 09:06:06;;;;;;;5.53;4.43;;;;;;;16.82;51.19;100927.59;4942305;29;20203;-71
2022/05/03 09:08:33;;;;;;;6.70;4.27;;;;;;;16.82;51.78;100925.81;4947873;28;20733;-71
2022/05/03 09:11:00;;;;;;;7.70;5.03;;;;;;;16.81;49.57;100931.13;4943697;29;20279;-71
2022/05/03 09:13:29;;;;;;;5.57;4.47;;;;;;;16.74;49.62;100925.28;4940212;28;20760;-71
2022/05/03 09:15:56;;;;;;;6.70;5.07;;;;;;;16.82;49.64;100919.69;4943316;28;20750;-72
2022/05/03 09:18:26;;;;;;;5.50;4.70;;;;;;;16.91;51.39;100915.81;4942244;29;20836;-70
2022/05/03 09:23:49;;;;;;;6.13;5.40;;;;;;;17.04;50.11;100914.25;4937487;29;20235;-71
2022/05/03 09:26:18;;;;;;;6.40;5.37;;;;;;;17.12;50.76;100906.84;4937775;29;20611;-73
2022/05/03 09:28:47;;;;;;;7.57;5.10;;;;;;;17.15;49.03;100914.59;4939298;29;20214;-71
2022/05/03 09:31:14;;;;;;;6.00;5.00;;;;;;;17.14;46.08;100918.16;4941940;28;20764;-70
2022/05/03 09:33:41;;;;;;;6.30;4.87;;;;;;;16.96;46.16;100917.28;4942036;29;20215;-70
2022/05/03 09:36:12;;;;;;;5.20;4.40;;;;;;;17.01;47.20;100919.69;4939708;29;20201;-71
2022/05/03 09:38:46;;;;;;;5.60;4.70;;;;;;;17.24;47.26;100908.03;4944767;29;20227;-73
2022/05/03 09:41:15;;;;;;;6.63;5.27;;;;;;;17.38;46.24;100918.72;4934830;29;20202;-71
2022/05/03 09:44:03;;;;;;;8.73;5.53;;;;;;;17.45;48.17;100902.59;4942622;29;20601;-72
2022/05/03 09:46:29;;;;;;;7.27;5.00;;;;;;;17.37;46.17;100908.25;4935115;28;20205;-72
2022/05/03 09:49:04;;;;;;;6.77;5.10;;;;;;;17.55;47.31;100907.34;4937299;29;20218;-70
2022/05/03 09:51:43;;;;;;;5.90;5.30;;;;;;;17.75;47.43;100903.69;4937700;28;20297;-72
2022/05/03 09:54:19;;;;;;;8.33;6.07;;;;;;;17.78;46.16;100921.13;4942590;29;20633;-71
2022/05/03 09:59:46;;;;;;;6.90;5.70;;;;;;;17.77;48.03;100899.19;4935931;28;20214;-71
2022/05/03 10:02:32;;;;;;;8.43;5.70;;;;;;;17.91;46.63;100897.66;4936611;29;20225;-72
2022/05/03 10:05:04;;;;;;;6.77;5.77;;;;;;;17.93;47.66;100895.78;4935768;29;20195;-70
2022/05/03 10:07:37;;;;;;;6.13;5.53;;;;;;;17.91;48.41;100895.84;4936635;29;20243;-73
2022/05/03 10:10:16;;;;;;;9.67;5.87;;;;;;;17.88;46.97;100895.16;4945035;28;20261;-71
2022/05/03 10:12:54;;;;;;;6.90;5.90;;;;;;;17.86;47.42;100894.41;4944623;29;20409;-71
2022/05/03 10:21:22;;;;;;;6.77;5.60;;;;;;;18.20;45.15;100895.25;4936976;29;20745;-71
2022/05/03 10:24:17;;;;;;;8.27;6.33;;;;;;;18.26;44.06;100893.13;4934358;29;20278;-72
2022/05/03 10:26:55;;;;;;;6.83;5.47;;;;;;;18.45;46.15;100887.69;4942037;28;20201;-71
2022/05/03 10:29:25;;;;;;;6.87;5.73;;;;;;;18.53;45.98;100888.09;4945652;28;20226;-71
2022/05/03 10:31:57;;;;;;;8.63;6.50;;;;;;;18.48;45.13;100886.66;4950011;28;20200;-71
2022/05/03 10:34:59;;;;;;;8.00;6.33;;;;;;;18.51;44.77;100886.50;4942615;28;20214;-71
2022/05/03 10:38:14;;;;;;;6.70;5.40;;;;;;;18.49;47.30;100885.75;4938668;28;20238;-72
2022/05/03 10:40:51;;;;;;;7.13;5.63;;;;;;;18.46;43.36;100892.03;4945403;29;20214;-72
2022/05/03 10:43:26;;;;;;;6.20;5.60;;;;;;;18.41;45.35;100883.50;4950783;28;20198;-71
2022/05/03 10:46:02;;;;;;;11.00;6.00;;;;;;;18.46;44.98;100892.03;4947476;29;20681;-71
2022/05/03 10:48:41;;;;;;;9.20;5.60;;;;;;;18.47;46.03;100883.19;4944797;28;20579;-71
2022/05/03 10:51:15;;;;;;;7.30;5.43;;;;;;;18.57;45.93;100880.88;4947809;28;20191;-71
2022/05/03 10:54:03;;;;;;;7.57;5.50;;;;;;;18.73;45.31;100879.09;4948128;29;20213;-70
2022/05/03 10:56:57;;;;;;;7.53;5.73;;;;;;;18.77;44.13;100881.53;4950573;28;20230;-71
2022/05/03 10:59:55;;;;;;;8.03;6.20;;;;;;;18.95;42.61;100885.00;4947263;29;20226;-71
2022/05/03 11:02:31;;;;;;;6.03;5.23;;;;;;;19.02;44.23;100881.91;4941986;29;20733;-71
2022/05/03 11:05:25;;;;;;;7.60;5.33;;;;;;;19.01;42.50;100877.53;4948870;29;20206;-71
2022/05/03 11:08:40;;;;;;;6.63;4.60;;;;;;;18.89;43.30;100872.94;4950533;28;20671;-71
2022/05/03 11:11:31;;;;;;;7.47;5.40;;;;;;;18.78;45.50;100870.06;4940525;28;20206;-72
2022/05/03 11:14:20;;;;;;;8.60;5.53;;;;;;;18.79;44.65;100871.75;4944862;29;20223;-71
2022/05/03 11:17:18;;;;;;;7.53;5.80;;;;;;;18.90;44.44;100872.03;4942793;29;20206;-71
2022/05/03 11:20:00;;;;;;;5.80;5.00;;;;;;;19.09;43.79;100872.66;4946597;28;20219;-71
2022/05/03 11:22:36;;;;;;;9.30;5.67;;;;;;;18.94;43.35;100867.41;4943522;29;20225;-71
2022/05/03 11:25:14;;;;;;;5.50;4.90;;;;;;;19.00;45.43;100862.63;4953947;28;20209;-70
2022/05/03 11:28:15;;;;;;;8.17;5.47;;;;;;;18.86;46.16;100860.78;4947854;28;20218;-71
2022/05/03 11:31:01;;;;;;;6.23;5.53;;;;;;;18.69;43.64;100861.69;4943002;29;20572;-71
2022/05/03 11:33:52;;;;;;;8.03;6.10;;;;;;;18.76;44.72;100851.66;4940050;28;20699;-72
2022/05/03 11:36:40;;;;;;;6.97;6.20;;;;;;;18.79;45.21;100845.34;4947880;28;20203;-73
2022/05/03 11:39:14;;;;;;;7.50;5.10;;;;;;;19.16;44.73;100840.63;4944990;28;20543;-71
2022/05/03 11:42:15;;;;;;;7.93;5.50;;;;;;;19.24;45.36;100846.28;4946205;29;20202;-71
2022/05/03 11:44:46;;;;;;;6.00;5.40;;;;;;;19.34;43.86;100844.81;4947356;29;20199;-70
2022/05/03 11:47:24;;;;;;;9.10;5.47;;;;;;;19.36;44.66;100842.06;4942813;28;20306;-71
2022/05/03 11:49:57;;;;;;;6.50;5.70;;;;;;;19.30;45.77;100841.50;4938531;29;20253;-72
2022/05/03 11:58:23;;;;;;;9.03;6.20;;;;;;;18.90;43.53;100856.19;4946578;29;20226;-71
2022/05/03 12:01:02;;;;;;;7.03;5.97;;;;;;;18.76;43.93;100842.88;4944276;29;20194;-71
2022/05/03 12:03:56;;;;;;;6.97;5.83;;;;;;;18.99;43.12;100842.44;4940462;29;20217;-71
2022/05/03 12:06:44;;;;;;;5.73;5.00;;;;;;;19.07;44.31;100834.06;4941781;28;20299;-72
2022/05/03 12:09:25;;;;;;;7.53;5.83;;;;;;;19.33;44.51;100834.31;4935660;29;20222;-71
2022/05/03 12:14:55;;;;;;;9.63;5.43;;;;;;;19.56;46.93;100819.72;4909300;29;20289;-72
2022/05/03 12:18:00;;;;;;;8.73;5.70;;;;;;;19.65;44.96;100827.09;4933858;29;20219;-71
2022/05/03 12:20:47;;;;;;;7.03;6.27;;;;;;;19.76;45.09;100822.03;4940294;29;20350;-70